RJSC/GAJ METAR and TAF weather

Enter ICAO airport designator
Station Type Date Time Source
RJSC METAR 2018/12/19 03:00 UTC NOAA

RJSC 190300Z 19012KT 9999 -SHRA FEW005 SCT020 BKN050 05/02 Q1011


Station Type Date Time Source
RJSC Decoded METAR 2018/12/19 03:00 UTC NOAA

Yamagata Airport, Japan (RJSC) 38-25N 140-22E 108M
Dec 18, 2018 - 10:00 PM EST / 2018.12.19 0300 UTC
Wind: from the S (190 degrees) at 14 MPH (12 KT):0
Visibility: greater than 7 mile(s):0
Sky conditions: mostly cloudy
Weather: light rain showers
Temperature: 41 F (5 C)
Dew Point: 35 F (2 C)
Relative Humidity: 80%
Pressure (altimeter): 29.85 in. Hg (1011 hPa)
ob: RJSC 190300Z 19012KT 9999 -SHRA FEW005 SCT020 BKN050 05/02 Q1011
cycle: 3

Station Type Date Time Source
RJSC TAF UTC NOAA

Error!


Example: see airport list